Floral, Arkansas
Current Conditions -  °F | °C
As of 3:15 PM on Saturday 22 Nov 2014 (Local Time) from KBVX Reporting Station
Broken Clouds Broken Clouds  
Wind Chill: 61°   Ceiling: 12000
Heat Index: 61°   Visibility: 10mi
Dew Point: 48°   Wind: 7mph
Humidity: 63%   Direction: 160°SSE
Pressure: 30.03"   Gusts: NA
Location:  35.59°N, 91.76°W
Report Text: KBVX 222115Z AUTO 16006KT 10SM FEW039 SCT046 BKN120 16/09 A3003 RMK AO1
Loading
Personal Weather Stations






























Interactive Weather Map New forecast layout! Learn more

10-Day Weather Forecast

Advertisements
Track Severe Weather on mobile